sensor_id;sensor_type;location;lat;lon;timestamp;P1;durP1;ratioP1;P2;durP2;ratioP2
63882;SDS011;50047;50.596;30.466;2022-07-22T00:02:26;3.80;;;2.70;;
63882;SDS011;50047;50.596;30.466;2022-07-22T00:04:54;2.50;;;2.00;;
63882;SDS011;50047;50.596;30.466;2022-07-22T00:07:21;3.80;;;2.40;;
63882;SDS011;50047;50.596;30.466;2022-07-22T00:09:48;3.40;;;2.60;;
63882;SDS011;50047;50.596;30.466;2022-07-22T00:12:16;3.40;;;2.50;;
63882;SDS011;50047;50.596;30.466;2022-07-22T00:14:43;3.80;;;2.70;;
63882;SDS011;50047;50.596;30.466;2022-07-22T00:17:10;4.10;;;2.80;;
63882;SDS011;50047;50.596;30.466;2022-07-22T00:19:38;3.90;;;2.70;;
63882;SDS011;50047;50.596;30.466;2022-07-22T00:22:05;2.50;;;1.80;;
63882;SDS011;50047;50.596;30.466;2022-07-22T00:24:32;4.80;;;2.40;;
63882;SDS011;50047;50.596;30.466;2022-07-22T00:26:59;3.60;;;2.30;;
63882;SDS011;50047;50.596;30.466;2022-07-22T00:29:27;4.20;;;2.60;;
63882;SDS011;50047;50.596;30.466;2022-07-22T00:31:54;4.20;;;2.60;;
63882;SDS011;50047;50.596;30.466;2022-07-22T00:34:21;6.00;;;2.50;;
63882;SDS011;50047;50.596;30.466;2022-07-22T00:36:50;3.20;;;2.00;;
63882;SDS011;50047;50.596;30.466;2022-07-22T00:39:18;8.20;;;2.30;;
63882;SDS011;50047;50.596;30.466;2022-07-22T00:41:45;3.20;;;2.40;;
63882;SDS011;50047;50.596;30.466;2022-07-22T00:44:13;3.30;;;2.50;;
63882;SDS011;50047;50.596;30.466;2022-07-22T00:46:40;4.30;;;2.30;;
63882;SDS011;50047;50.596;30.466;2022-07-22T00:49:08;3.70;;;2.60;;
63882;SDS011;50047;50.596;30.466;2022-07-22T00:51:35;5.20;;;2.20;;
63882;SDS011;50047;50.596;30.466;2022-07-22T00:54:05;3.60;;;2.30;;
63882;SDS011;50047;50.596;30.466;2022-07-22T00:56:33;3.60;;;2.40;;
63882;SDS011;50047;50.596;30.466;2022-07-22T00:59:01;4.30;;;2.50;;
63882;SDS011;50047;50.596;30.466;2022-07-22T01:01:31;4.00;;;2.40;;
63882;SDS011;50047;50.596;30.466;2022-07-22T01:03:59;5.80;;;2.50;;
63882;SDS011;50047;50.596;30.466;2022-07-22T01:06:28;2.60;;;1.90;;
63882;SDS011;50047;50.596;30.466;2022-07-22T01:08:56;7.60;;;2.80;;
63882;SDS011;50047;50.596;30.466;2022-07-22T01:11:25;4.80;;;2.80;;
63882;SDS011;50047;50.596;30.466;2022-07-22T01:13:53;4.80;;;2.50;;
63882;SDS011;50047;50.596;30.466;2022-07-22T01:16:21;6.90;;;2.50;;
63882;SDS011;50047;50.596;30.466;2022-07-22T01:18:50;5.30;;;2.90;;
63882;SDS011;50047;50.596;30.466;2022-07-22T01:21:18;4.30;;;2.20;;
63882;SDS011;50047;50.596;30.466;2022-07-22T01:23:46;4.90;;;2.80;;
63882;SDS011;50047;50.596;30.466;2022-07-22T01:26:13;5.20;;;2.80;;
63882;SDS011;50047;50.596;30.466;2022-07-22T01:28:42;8.50;;;2.70;;
63882;SDS011;50047;50.596;30.466;2022-07-22T01:31:10;3.60;;;2.90;;
63882;SDS011;50047;50.596;30.466;2022-07-22T01:33:37;6.20;;;2.90;;
63882;SDS011;50047;50.596;30.466;2022-07-22T01:36:05;2.60;;;1.80;;
63882;SDS011;50047;50.596;30.466;2022-07-22T01:38:33;5.80;;;2.20;;
63882;SDS011;50047;50.596;30.466;2022-07-22T01:41:01;5.30;;;2.60;;
63882;SDS011;50047;50.596;30.466;2022-07-22T01:43:28;4.10;;;2.30;;
63882;SDS011;50047;50.596;30.466;2022-07-22T01:45:56;4.30;;;2.80;;
63882;SDS011;50047;50.596;30.466;2022-07-22T01:48:24;3.10;;;2.70;;
63882;SDS011;50047;50.596;30.466;2022-07-22T01:50:51;6.20;;;2.70;;
63882;SDS011;50047;50.596;30.466;2022-07-22T01:53:19;5.10;;;3.20;;
63882;SDS011;50047;50.596;30.466;2022-07-22T01:55:47;4.10;;;2.10;;
63882;SDS011;50047;50.596;30.466;2022-07-22T01:58:15;5.20;;;2.50;;
63882;SDS011;50047;50.596;30.466;2022-07-22T02:00:43;5.10;;;2.60;;
63882;SDS011;50047;50.596;30.466;2022-07-22T02:03:11;4.60;;;2.90;;
63882;SDS011;50047;50.596;30.466;2022-07-22T02:05:38;4.10;;;2.80;;
63882;SDS011;50047;50.596;30.466;2022-07-22T02:08:15;4.20;;;2.90;;
63882;SDS011;50047;50.596;30.466;2022-07-22T02:11:01;5.40;;;2.30;;
63882;SDS011;50047;50.596;30.466;2022-07-22T02:13:30;5.60;;;2.60;;
63882;SDS011;50047;50.596;30.466;2022-07-22T02:15:57;3.40;;;2.60;;
63882;SDS011;50047;50.596;30.466;2022-07-22T02:18:25;5.50;;;3.10;;
63882;SDS011;50047;50.596;30.466;2022-07-22T02:20:52;3.80;;;2.90;;
63882;SDS011;50047;50.596;30.466;2022-07-22T02:23:20;7.20;;;3.10;;
63882;SDS011;50047;50.596;30.466;2022-07-22T02:25:47;2.90;;;2.10;;
63882;SDS011;50047;50.596;30.466;2022-07-22T02:28:16;5.90;;;2.70;;
63882;SDS011;50047;50.596;30.466;2022-07-22T02:30:44;5.30;;;3.10;;
63882;SDS011;50047;50.596;30.466;2022-07-22T02:33:11;6.50;;;2.70;;
63882;SDS011;50047;50.596;30.466;2022-07-22T02:35:40;3.70;;;2.80;;
63882;SDS011;50047;50.596;30.466;2022-07-22T02:38:07;5.10;;;3.10;;
63882;SDS011;50047;50.596;30.466;2022-07-22T02:40:36;4.20;;;2.80;;
63882;SDS011;50047;50.596;30.466;2022-07-22T02:43:03;2.90;;;2.10;;
63882;SDS011;50047;50.596;30.466;2022-07-22T02:45:33;5.60;;;2.50;;
63882;SDS011;50047;50.596;30.466;2022-07-22T02:48:01;3.70;;;2.80;;
63882;SDS011;50047;50.596;30.466;2022-07-22T02:50:29;4.40;;;2.90;;
63882;SDS011;50047;50.596;30.466;2022-07-22T02:52:56;4.00;;;3.00;;
63882;SDS011;50047;50.596;30.466;2022-07-22T02:55:25;9.80;;;3.20;;
63882;SDS011;50047;50.596;30.466;2022-07-22T02:57:53;3.70;;;2.80;;
63882;SDS011;50047;50.596;30.466;2022-07-22T03:00:20;4.00;;;2.30;;
63882;SDS011;50047;50.596;30.466;2022-07-22T03:02:48;4.10;;;2.40;;
63882;SDS011;50047;50.596;30.466;2022-07-22T03:05:16;5.30;;;2.90;;
63882;SDS011;50047;50.596;30.466;2022-07-22T03:07:49;4.80;;;3.00;;
63882;SDS011;50047;50.596;30.466;2022-07-22T03:10:16;4.10;;;3.20;;
63882;SDS011;50047;50.596;30.466;2022-07-22T03:12:43;6.30;;;3.60;;
63882;SDS011;50047;50.596;30.466;2022-07-22T03:15:10;8.20;;;3.30;;
63882;SDS011;50047;50.596;30.466;2022-07-22T03:17:38;4.00;;;2.00;;
63882;SDS011;50047;50.596;30.466;2022-07-22T03:20:06;3.80;;;2.80;;
63882;SDS011;50047;50.596;30.466;2022-07-22T03:22:36;4.90;;;2.80;;
63882;SDS011;50047;50.596;30.466;2022-07-22T03:25:04;4.70;;;2.70;;
63882;SDS011;50047;50.596;30.466;2022-07-22T03:27:32;5.20;;;3.70;;
63882;SDS011;50047;50.596;30.466;2022-07-22T03:29:59;4.40;;;3.20;;
63882;SDS011;50047;50.596;30.466;2022-07-22T03:32:29;5.40;;;3.40;;
63882;SDS011;50047;50.596;30.466;2022-07-22T03:34:56;5.10;;;2.40;;
63882;SDS011;50047;50.596;30.466;2022-07-22T03:37:30;5.10;;;2.90;;
63882;SDS011;50047;50.596;30.466;2022-07-22T03:39:58;5.40;;;3.10;;
63882;SDS011;50047;50.596;30.466;2022-07-22T03:42:25;5.00;;;3.40;;
63882;SDS011;50047;50.596;30.466;2022-07-22T03:44:53;5.80;;;3.10;;
63882;SDS011;50047;50.596;30.466;2022-07-22T03:47:20;5.40;;;3.40;;
63882;SDS011;50047;50.596;30.466;2022-07-22T03:49:49;4.10;;;3.10;;
63882;SDS011;50047;50.596;30.466;2022-07-22T03:52:24;2.90;;;2.10;;
63882;SDS011;50047;50.596;30.466;2022-07-22T03:54:52;7.60;;;2.70;;
63882;SDS011;50047;50.596;30.466;2022-07-22T03:57:19;5.30;;;3.10;;
63882;SDS011;50047;50.596;30.466;2022-07-22T03:59:49;7.60;;;3.30;;
63882;SDS011;50047;50.596;30.466;2022-07-22T04:02:17;4.20;;;3.00;;
63882;SDS011;50047;50.596;30.466;2022-07-22T04:04:45;4.20;;;3.20;;
63882;SDS011;50047;50.596;30.466;2022-07-22T04:07:13;7.20;;;3.60;;
63882;SDS011;50047;50.596;30.466;2022-07-22T04:09:40;5.10;;;2.20;;
63882;SDS011;50047;50.596;30.466;2022-07-22T04:12:08;4.70;;;2.80;;
63882;SDS011;50047;50.596;30.466;2022-07-22T04:14:47;4.30;;;3.10;;
63882;SDS011;50047;50.596;30.466;2022-07-22T04:17:15;6.10;;;2.70;;
63882;SDS011;50047;50.596;30.466;2022-07-22T04:19:42;5.00;;;3.50;;
63882;SDS011;50047;50.596;30.466;2022-07-22T04:22:32;5.60;;;3.60;;
63882;SDS011;50047;50.596;30.466;2022-07-22T04:25:00;5.30;;;3.00;;
63882;SDS011;50047;50.596;30.466;2022-07-22T04:27:27;4.70;;;3.20;;
63882;SDS011;50047;50.596;30.466;2022-07-22T04:29:54;4.90;;;2.10;;
63882;SDS011;50047;50.596;30.466;2022-07-22T04:32:22;4.70;;;2.40;;
63882;SDS011;50047;50.596;30.466;2022-07-22T04:34:49;5.50;;;2.80;;
63882;SDS011;50047;50.596;30.466;2022-07-22T04:37:16;3.50;;;2.70;;
63882;SDS011;50047;50.596;30.466;2022-07-22T04:39:43;4.90;;;3.00;;
63882;SDS011;50047;50.596;30.466;2022-07-22T04:42:11;9.00;;;2.90;;
63882;SDS011;50047;50.596;30.466;2022-07-22T04:44:39;6.20;;;3.20;;
63882;SDS011;50047;50.596;30.466;2022-07-22T04:47:07;5.30;;;3.10;;
63882;SDS011;50047;50.596;30.466;2022-07-22T04:49:36;4.10;;;3.00;;
63882;SDS011;50047;50.596;30.466;2022-07-22T04:52:04;5.50;;;2.70;;
63882;SDS011;50047;50.596;30.466;2022-07-22T04:54:40;5.00;;;3.10;;
63882;SDS011;50047;50.596;30.466;2022-07-22T04:57:07;4.70;;;3.60;;
63882;SDS011;50047;50.596;30.466;2022-07-22T04:59:34;5.30;;;3.60;;
63882;SDS011;50047;50.596;30.466;2022-07-22T05:02:02;3.90;;;2.90;;
63882;SDS011;50047;50.596;30.466;2022-07-22T05:04:30;5.80;;;3.30;;
63882;SDS011;50047;50.596;30.466;2022-07-22T05:06:58;5.20;;;3.10;;
63882;SDS011;50047;50.596;30.466;2022-07-22T05:09:25;6.80;;;2.90;;
63882;SDS011;50047;50.596;30.466;2022-07-22T05:11:52;5.80;;;3.50;;
63882;SDS011;50047;50.596;30.466;2022-07-22T05:14:21;4.10;;;3.40;;
63882;SDS011;50047;50.596;30.466;2022-07-22T05:16:48;5.80;;;3.40;;
63882;SDS011;50047;50.596;30.466;2022-07-22T05:19:16;6.90;;;3.50;;
63882;SDS011;50047;50.596;30.466;2022-07-22T05:21:45;4.70;;;3.30;;
63882;SDS011;50047;50.596;30.466;2022-07-22T05:24:13;5.80;;;2.90;;
63882;SDS011;50047;50.596;30.466;2022-07-22T05:26:40;5.20;;;3.20;;
63882;SDS011;50047;50.596;30.466;2022-07-22T05:29:07;6.10;;;3.90;;
63882;SDS011;50047;50.596;30.466;2022-07-22T05:31:35;4.20;;;3.10;;
63882;SDS011;50047;50.596;30.466;2022-07-22T05:34:02;4.80;;;3.20;;
63882;SDS011;50047;50.596;30.466;2022-07-22T05:36:33;4.30;;;2.80;;
63882;SDS011;50047;50.596;30.466;2022-07-22T05:39:01;6.30;;;3.20;;
63882;SDS011;50047;50.596;30.466;2022-07-22T05:41:28;7.30;;;3.10;;
63882;SDS011;50047;50.596;30.466;2022-07-22T05:43:55;8.10;;;3.10;;
63882;SDS011;50047;50.596;30.466;2022-07-22T05:46:23;4.50;;;3.10;;
63882;SDS011;50047;50.596;30.466;2022-07-22T05:48:50;3.50;;;2.40;;
63882;SDS011;50047;50.596;30.466;2022-07-22T05:51:18;7.20;;;2.80;;
63882;SDS011;50047;50.596;30.466;2022-07-22T05:53:46;4.90;;;2.60;;
63882;SDS011;50047;50.596;30.466;2022-07-22T05:56:15;4.00;;;2.80;;
63882;SDS011;50047;50.596;30.466;2022-07-22T05:58:42;3.90;;;2.70;;
63882;SDS011;50047;50.596;30.466;2022-07-22T06:01:11;4.00;;;2.50;;
63882;SDS011;50047;50.596;30.466;2022-07-22T06:03:39;4.90;;;2.30;;
63882;SDS011;50047;50.596;30.466;2022-07-22T06:06:06;7.40;;;2.10;;
63882;SDS011;50047;50.596;30.466;2022-07-22T06:08:35;9.10;;;2.50;;
63882;SDS011;50047;50.596;30.466;2022-07-22T06:11:03;3.20;;;2.00;;
63882;SDS011;50047;50.596;30.466;2022-07-22T06:13:49;3.10;;;2.30;;
63882;SDS011;50047;50.596;30.466;2022-07-22T06:16:17;4.40;;;2.60;;
63882;SDS011;50047;50.596;30.466;2022-07-22T06:18:46;6.10;;;2.30;;
63882;SDS011;50047;50.596;30.466;2022-07-22T06:21:13;3.30;;;2.20;;
63882;SDS011;50047;50.596;30.466;2022-07-22T06:23:40;4.60;;;2.20;;
63882;SDS011;50047;50.596;30.466;2022-07-22T06:26:08;3.00;;;2.20;;
63882;SDS011;50047;50.596;30.466;2022-07-22T06:28:35;4.40;;;2.50;;
63882;SDS011;50047;50.596;30.466;2022-07-22T06:31:02;2.70;;;2.20;;
63882;SDS011;50047;50.596;30.466;2022-07-22T06:33:30;6.50;;;2.40;;
63882;SDS011;50047;50.596;30.466;2022-07-22T06:36:00;7.30;;;2.50;;
63882;SDS011;50047;50.596;30.466;2022-07-22T06:38:27;3.70;;;2.10;;
63882;SDS011;50047;50.596;30.466;2022-07-22T06:41:50;5.20;;;2.60;;
63882;SDS011;50047;50.596;30.466;2022-07-22T06:44:46;3.40;;;2.30;;
63882;SDS011;50047;50.596;30.466;2022-07-22T06:47:23;3.10;;;2.40;;
63882;SDS011;50047;50.596;30.466;2022-07-22T06:49:52;6.40;;;2.40;;
63882;SDS011;50047;50.596;30.466;2022-07-22T06:52:20;4.80;;;2.40;;
63882;SDS011;50047;50.596;30.466;2022-07-22T06:54:47;6.00;;;2.40;;
63882;SDS011;50047;50.596;30.466;2022-07-22T06:57:17;3.40;;;2.20;;
63882;SDS011;50047;50.596;30.466;2022-07-22T06:59:44;3.80;;;2.30;;
63882;SDS011;50047;50.596;30.466;2022-07-22T07:02:11;3.00;;;2.30;;
63882;SDS011;50047;50.596;30.466;2022-07-22T07:04:39;3.10;;;2.00;;
63882;SDS011;50047;50.596;30.466;2022-07-22T07:07:07;4.70;;;2.10;;
63882;SDS011;50047;50.596;30.466;2022-07-22T07:10:02;2.60;;;2.10;;
63882;SDS011;50047;50.596;30.466;2022-07-22T07:12:42;3.20;;;1.90;;
63882;SDS011;50047;50.596;30.466;2022-07-22T07:15:19;4.30;;;1.80;;
63882;SDS011;50047;50.596;30.466;2022-07-22T07:17:52;2.80;;;2.00;;
63882;SDS011;50047;50.596;30.466;2022-07-22T07:20:22;3.50;;;2.00;;
63882;SDS011;50047;50.596;30.466;2022-07-22T07:22:50;3.30;;;1.80;;
63882;SDS011;50047;50.596;30.466;2022-07-22T07:25:19;4.10;;;1.90;;
63882;SDS011;50047;50.596;30.466;2022-07-22T07:27:52;2.30;;;1.80;;
63882;SDS011;50047;50.596;30.466;2022-07-22T07:30:32;2.60;;;2.10;;
63882;SDS011;50047;50.596;30.466;2022-07-22T07:32:59;3.50;;;2.00;;
63882;SDS011;50047;50.596;30.466;2022-07-22T07:35:27;4.40;;;2.10;;
63882;SDS011;50047;50.596;30.466;2022-07-22T07:37:58;3.50;;;1.90;;
63882;SDS011;50047;50.596;30.466;2022-07-22T07:40:25;2.80;;;2.00;;
63882;SDS011;50047;50.596;30.466;2022-07-22T07:42:53;3.00;;;2.00;;
63882;SDS011;50047;50.596;30.466;2022-07-22T07:45:29;4.70;;;1.90;;
63882;SDS011;50047;50.596;30.466;2022-07-22T07:47:57;3.00;;;1.90;;
63882;SDS011;50047;50.596;30.466;2022-07-22T07:50:24;2.10;;;1.90;;
63882;SDS011;50047;50.596;30.466;2022-07-22T07:52:53;7.00;;;2.00;;
63882;SDS011;50047;50.596;30.466;2022-07-22T07:55:21;3.20;;;2.30;;
63882;SDS011;50047;50.596;30.466;2022-07-22T07:57:49;3.10;;;2.40;;
63882;SDS011;50047;50.596;30.466;2022-07-22T08:00:20;5.10;;;2.30;;
63882;SDS011;50047;50.596;30.466;2022-07-22T08:02:50;3.00;;;2.10;;
63882;SDS011;50047;50.596;30.466;2022-07-22T08:05:18;2.90;;;1.90;;
63882;SDS011;50047;50.596;30.466;2022-07-22T08:07:48;6.00;;;1.90;;
63882;SDS011;50047;50.596;30.466;2022-07-22T08:10:17;3.30;;;1.90;;
63882;SDS011;50047;50.596;30.466;2022-07-22T08:13:17;2.80;;;1.90;;
63882;SDS011;50047;50.596;30.466;2022-07-22T08:15:45;7.00;;;1.80;;
63882;SDS011;50047;50.596;30.466;2022-07-22T08:18:32;3.50;;;2.10;;
63882;SDS011;50047;50.596;30.466;2022-07-22T08:20:59;2.10;;;1.50;;
63882;SDS011;50047;50.596;30.466;2022-07-22T08:23:43;5.30;;;1.70;;
63882;SDS011;50047;50.596;30.466;2022-07-22T08:26:11;2.60;;;1.60;;
63882;SDS011;50047;50.596;30.466;2022-07-22T08:28:39;1.60;;;1.40;;
63882;SDS011;50047;50.596;30.466;2022-07-22T08:31:06;3.60;;;1.60;;
63882;SDS011;50047;50.596;30.466;2022-07-22T08:33:33;3.20;;;1.50;;
63882;SDS011;50047;50.596;30.466;2022-07-22T08:36:02;3.40;;;1.50;;
63882;SDS011;50047;50.596;30.466;2022-07-22T08:38:31;2.30;;;1.40;;
63882;SDS011;50047;50.596;30.466;2022-07-22T08:40:58;2.70;;;1.40;;
63882;SDS011;50047;50.596;30.466;2022-07-22T08:43:31;2.30;;;1.50;;
63882;SDS011;50047;50.596;30.466;2022-07-22T08:46:02;2.20;;;1.60;;
63882;SDS011;50047;50.596;30.466;2022-07-22T08:48:42;3.50;;;1.70;;
63882;SDS011;50047;50.596;30.466;2022-07-22T08:51:22;5.20;;;1.60;;
63882;SDS011;50047;50.596;30.466;2022-07-22T08:54:09;3.10;;;1.70;;
63882;SDS011;50047;50.596;30.466;2022-07-22T08:56:37;3.30;;;1.50;;
63882;SDS011;50047;50.596;30.466;2022-07-22T08:59:06;4.10;;;1.50;;
63882;SDS011;50047;50.596;30.466;2022-07-22T09:01:33;2.80;;;1.40;;
63882;SDS011;50047;50.596;30.466;2022-07-22T09:04:01;1.90;;;1.50;;
63882;SDS011;50047;50.596;30.466;2022-07-22T09:06:34;3.00;;;1.50;;
63882;SDS011;50047;50.596;30.466;2022-07-22T09:09:04;1.70;;;1.30;;
63882;SDS011;50047;50.596;30.466;2022-07-22T09:12:06;1.70;;;1.30;;
63882;SDS011;50047;50.596;30.466;2022-07-22T09:14:55;4.10;;;1.40;;
63882;SDS011;50047;50.596;30.466;2022-07-22T09:18:03;1.90;;;1.40;;
63882;SDS011;50047;50.596;30.466;2022-07-22T09:21:11;3.20;;;1.30;;
63882;SDS011;50047;50.596;30.466;2022-07-22T09:24:00;2.80;;;1.50;;
63882;SDS011;50047;50.596;30.466;2022-07-22T09:26:34;2.40;;;1.40;;
63882;SDS011;50047;50.596;30.466;2022-07-22T09:29:48;6.80;;;1.40;;
63882;SDS011;50047;50.596;30.466;2022-07-22T09:32:18;2.90;;;1.40;;
63882;SDS011;50047;50.596;30.466;2022-07-22T09:34:52;1.70;;;1.40;;
63882;SDS011;50047;50.596;30.466;2022-07-22T09:37:34;2.60;;;1.20;;
63882;SDS011;50047;50.596;30.466;2022-07-22T09:40:14;3.30;;;1.30;;
63882;SDS011;50047;50.596;30.466;2022-07-22T09:42:54;1.60;;;1.10;;
63882;SDS011;50047;50.596;30.466;2022-07-22T09:45:28;2.30;;;1.30;;
63882;SDS011;50047;50.596;30.466;2022-07-22T09:47:57;2.30;;;1.30;;
63882;SDS011;50047;50.596;30.466;2022-07-22T09:50:46;1.40;;;1.20;;
63882;SDS011;50047;50.596;30.466;2022-07-22T09:53:19;1.30;;;1.10;;
63882;SDS011;50047;50.596;30.466;2022-07-22T09:56:14;2.50;;;1.20;;
63882;SDS011;50047;50.596;30.466;2022-07-22T09:58:42;1.40;;;1.20;;
63882;SDS011;50047;50.596;30.466;2022-07-22T10:01:25;3.40;;;1.20;;
63882;SDS011;50047;50.596;30.466;2022-07-22T10:03:53;2.40;;;1.30;;
63882;SDS011;50047;50.596;30.466;2022-07-22T10:06:22;2.90;;;1.10;;
63882;SDS011;50047;50.596;30.466;2022-07-22T10:08:50;4.20;;;1.40;;
63882;SDS011;50047;50.596;30.466;2022-07-22T10:11:18;3.70;;;1.20;;
63882;SDS011;50047;50.596;30.466;2022-07-22T10:13:46;2.40;;;1.20;;
63882;SDS011;50047;50.596;30.466;2022-07-22T10:16:14;2.70;;;1.40;;
63882;SDS011;50047;50.596;30.466;2022-07-22T10:18:45;3.20;;;1.20;;
63882;SDS011;50047;50.596;30.466;2022-07-22T10:21:14;1.90;;;1.00;;
63882;SDS011;50047;50.596;30.466;2022-07-22T10:26:50;1.40;;;1.20;;
63882;SDS011;50047;50.596;30.466;2022-07-22T10:34:42;1.80;;;1.00;;
63882;SDS011;50047;50.596;30.466;2022-07-22T10:40:19;2.30;;;1.20;;
63882;SDS011;50047;50.596;30.466;2022-07-22T10:45:28;3.80;;;1.20;;
63882;SDS011;50047;50.596;30.466;2022-07-22T10:48:03;2.50;;;1.20;;
63882;SDS011;50047;50.596;30.466;2022-07-22T11:01:01;2.20;;;1.10;;
63882;SDS011;50047;50.596;30.466;2022-07-22T11:03:33;1.70;;;1.10;;
63882;SDS011;50047;50.596;30.466;2022-07-22T11:06:19;2.80;;;1.10;;
63882;SDS011;50047;50.596;30.466;2022-07-22T11:08:53;1.40;;;0.90;;
63882;SDS011;50047;50.596;30.466;2022-07-22T11:11:32;1.50;;;1.10;;
63882;SDS011;50047;50.596;30.466;2022-07-22T11:14:00;1.80;;;1.00;;
63882;SDS011;50047;50.596;30.466;2022-07-22T11:16:28;4.30;;;1.10;;
63882;SDS011;50047;50.596;30.466;2022-07-22T11:19:00;1.80;;;1.00;;
63882;SDS011;50047;50.596;30.466;2022-07-22T11:21:31;1.50;;;0.90;;
63882;SDS011;50047;50.596;30.466;2022-07-22T11:24:08;3.70;;;1.00;;
63882;SDS011;50047;50.596;30.466;2022-07-22T11:29:06;1.40;;;1.00;;
63882;SDS011;50047;50.596;30.466;2022-07-22T11:31:35;1.20;;;1.00;;
63882;SDS011;50047;50.596;30.466;2022-07-22T11:34:05;1.20;;;0.80;;
63882;SDS011;50047;50.596;30.466;2022-07-22T11:36:39;3.70;;;1.00;;
63882;SDS011;50047;50.596;30.466;2022-07-22T11:39:09;3.00;;;1.00;;
63882;SDS011;50047;50.596;30.466;2022-07-22T11:41:38;2.20;;;1.00;;
63882;SDS011;50047;50.596;30.466;2022-07-22T11:44:06;3.20;;;0.90;;
63882;SDS011;50047;50.596;30.466;2022-07-22T11:46:34;2.80;;;1.00;;
63882;SDS011;50047;50.596;30.466;2022-07-22T11:49:08;1.10;;;0.90;;
63882;SDS011;50047;50.596;30.466;2022-07-22T11:51:37;1.40;;;0.90;;
63882;SDS011;50047;50.596;30.466;2022-07-22T11:54:05;2.10;;;1.10;;
63882;SDS011;50047;50.596;30.466;2022-07-22T11:56:33;3.80;;;1.00;;
63882;SDS011;50047;50.596;30.466;2022-07-22T11:59:02;2.60;;;1.00;;
63882;SDS011;50047;50.596;30.466;2022-07-22T12:01:33;1.60;;;1.00;;
63882;SDS011;50047;50.596;30.466;2022-07-22T12:04:11;1.10;;;0.90;;
63882;SDS011;50047;50.596;30.466;2022-07-22T12:06:41;1.70;;;1.10;;
63882;SDS011;50047;50.596;30.466;2022-07-22T12:09:11;2.30;;;1.10;;
63882;SDS011;50047;50.596;30.466;2022-07-22T12:11:41;1.80;;;1.00;;
63882;SDS011;50047;50.596;30.466;2022-07-22T12:14:11;1.70;;;0.90;;
63882;SDS011;50047;50.596;30.466;2022-07-22T12:16:42;1.80;;;1.00;;
63882;SDS011;50047;50.596;30.466;2022-07-22T12:19:19;1.50;;;1.00;;
63882;SDS011;50047;50.596;30.466;2022-07-22T12:21:55;1.20;;;1.00;;
63882;SDS011;50047;50.596;30.466;2022-07-22T12:26:56;1.30;;;0.80;;
63882;SDS011;50047;50.596;30.466;2022-07-22T12:29:44;2.60;;;0.90;;
63882;SDS011;50047;50.596;30.466;2022-07-22T12:32:18;1.30;;;1.00;;
63882;SDS011;50047;50.596;30.466;2022-07-22T12:34:59;5.30;;;1.00;;
63882;SDS011;50047;50.596;30.466;2022-07-22T12:40:20;3.20;;;1.00;;
63882;SDS011;50047;50.596;30.466;2022-07-22T12:43:02;2.50;;;1.10;;
63882;SDS011;50047;50.596;30.466;2022-07-22T12:45:32;1.40;;;1.00;;
63882;SDS011;50047;50.596;30.466;2022-07-22T12:50:31;5.70;;;1.10;;
63882;SDS011;50047;50.596;30.466;2022-07-22T12:53:11;1.20;;;0.80;;
63882;SDS011;50047;50.596;30.466;2022-07-22T12:55:44;1.70;;;0.90;;
63882;SDS011;50047;50.596;30.466;2022-07-22T12:58:29;1.20;;;1.00;;
63882;SDS011;50047;50.596;30.466;2022-07-22T13:01:02;2.20;;;1.00;;
63882;SDS011;50047;50.596;30.466;2022-07-22T13:03:31;1.20;;;1.00;;
63882;SDS011;50047;50.596;30.466;2022-07-22T13:06:01;1.00;;;0.90;;
63882;SDS011;50047;50.596;30.466;2022-07-22T13:08:34;2.80;;;0.90;;
63882;SDS011;50047;50.596;30.466;2022-07-22T13:11:11;4.40;;;1.00;;
63882;SDS011;50047;50.596;30.466;2022-07-22T13:13:41;2.00;;;1.20;;
63882;SDS011;50047;50.596;30.466;2022-07-22T13:16:09;3.20;;;1.00;;
63882;SDS011;50047;50.596;30.466;2022-07-22T13:18:38;1.90;;;0.90;;
63882;SDS011;50047;50.596;30.466;2022-07-22T13:21:06;1.50;;;1.00;;
63882;SDS011;50047;50.596;30.466;2022-07-22T13:23:33;2.60;;;0.90;;
63882;SDS011;50047;50.596;30.466;2022-07-22T13:26:00;1.90;;;0.70;;
63882;SDS011;50047;50.596;30.466;2022-07-22T13:28:28;4.10;;;0.90;;
63882;SDS011;50047;50.596;30.466;2022-07-22T13:30:55;1.80;;;1.00;;
63882;SDS011;50047;50.596;30.466;2022-07-22T13:33:22;1.90;;;0.90;;
63882;SDS011;50047;50.596;30.466;2022-07-22T13:35:49;2.70;;;1.00;;
63882;SDS011;50047;50.596;30.466;2022-07-22T13:38:17;1.10;;;0.90;;
63882;SDS011;50047;50.596;30.466;2022-07-22T13:40:45;1.30;;;0.90;;
63882;SDS011;50047;50.596;30.466;2022-07-22T13:43:19;1.50;;;0.90;;
63882;SDS011;50047;50.596;30.466;2022-07-22T13:45:47;1.90;;;1.00;;
63882;SDS011;50047;50.596;30.466;2022-07-22T13:48:15;2.20;;;1.00;;
63882;SDS011;50047;50.596;30.466;2022-07-22T13:50:47;1.10;;;1.00;;
63882;SDS011;50047;50.596;30.466;2022-07-22T13:53:15;4.80;;;1.00;;
63882;SDS011;50047;50.596;30.466;2022-07-22T13:55:42;2.20;;;1.00;;
63882;SDS011;50047;50.596;30.466;2022-07-22T13:58:09;1.50;;;0.90;;
63882;SDS011;50047;50.596;30.466;2022-07-22T14:00:37;1.80;;;1.00;;
63882;SDS011;50047;50.596;30.466;2022-07-22T14:03:06;1.50;;;0.80;;
63882;SDS011;50047;50.596;30.466;2022-07-22T14:05:33;1.50;;;1.00;;
63882;SDS011;50047;50.596;30.466;2022-07-22T14:08:01;1.30;;;0.80;;
63882;SDS011;50047;50.596;30.466;2022-07-22T14:10:28;1.70;;;0.80;;
63882;SDS011;50047;50.596;30.466;2022-07-22T14:12:55;1.50;;;0.90;;
63882;SDS011;50047;50.596;30.466;2022-07-22T14:15:22;1.10;;;0.90;;
63882;SDS011;50047;50.596;30.466;2022-07-22T14:17:50;1.50;;;0.90;;
63882;SDS011;50047;50.596;30.466;2022-07-22T14:20:18;1.00;;;0.90;;
63882;SDS011;50047;50.596;30.466;2022-07-22T14:22:45;3.90;;;1.00;;
63882;SDS011;50047;50.596;30.466;2022-07-22T14:25:12;2.90;;;0.80;;
63882;SDS011;50047;50.596;30.466;2022-07-22T14:27:39;3.50;;;1.00;;
63882;SDS011;50047;50.596;30.466;2022-07-22T14:30:07;1.40;;;0.90;;
63882;SDS011;50047;50.596;30.466;2022-07-22T14:32:34;3.60;;;0.90;;
63882;SDS011;50047;50.596;30.466;2022-07-22T14:35:02;0.90;;;0.80;;
63882;SDS011;50047;50.596;30.466;2022-07-22T14:37:32;1.40;;;0.90;;
63882;SDS011;50047;50.596;30.466;2022-07-22T14:40:00;3.20;;;1.00;;
63882;SDS011;50047;50.596;30.466;2022-07-22T14:42:28;1.10;;;0.80;;
63882;SDS011;50047;50.596;30.466;2022-07-22T14:44:55;1.50;;;1.00;;
63882;SDS011;50047;50.596;30.466;2022-07-22T14:47:22;2.10;;;1.00;;
63882;SDS011;50047;50.596;30.466;2022-07-22T14:49:51;2.10;;;1.00;;
63882;SDS011;50047;50.596;30.466;2022-07-22T14:52:18;2.20;;;1.10;;
63882;SDS011;50047;50.596;30.466;2022-07-22T14:54:46;4.00;;;0.90;;
63882;SDS011;50047;50.596;30.466;2022-07-22T14:57:13;4.50;;;0.90;;
63882;SDS011;50047;50.596;30.466;2022-07-22T14:59:40;2.20;;;0.80;;
63882;SDS011;50047;50.596;30.466;2022-07-22T15:02:08;2.30;;;0.80;;
63882;SDS011;50047;50.596;30.466;2022-07-22T15:04:35;1.10;;;0.90;;
63882;SDS011;50047;50.596;30.466;2022-07-22T15:07:02;1.40;;;1.00;;
63882;SDS011;50047;50.596;30.466;2022-07-22T15:09:30;1.80;;;0.80;;
63882;SDS011;50047;50.596;30.466;2022-07-22T15:11:57;2.00;;;1.00;;
63882;SDS011;50047;50.596;30.466;2022-07-22T15:14:24;2.20;;;0.90;;
63882;SDS011;50047;50.596;30.466;2022-07-22T15:16:52;2.90;;;1.00;;
63882;SDS011;50047;50.596;30.466;2022-07-22T15:19:19;2.80;;;0.90;;
63882;SDS011;50047;50.596;30.466;2022-07-22T15:21:52;1.00;;;0.80;;
63882;SDS011;50047;50.596;30.466;2022-07-22T15:24:20;2.90;;;1.20;;
63882;SDS011;50047;50.596;30.466;2022-07-22T15:26:47;1.00;;;0.80;;
63882;SDS011;50047;50.596;30.466;2022-07-22T15:29:14;1.80;;;0.90;;